Time;durP1;ratioP1;P1;durP2;ratioP2;P2;SDS_P1;SDS_P2;PMS_P1;PMS_P2;Temp;Humidity;BMP_temperature;BMP_pressure;BME280_temperature;BME280_humidity;BME280_pressure;Samples;Min_cycle;Max_cycle;Signal;HPM_P1;HPM_P2
2023/05/13 00:01:06;;;;;;;8.50;5.88;;;14.60;99.90;;;;;;5030457;28;20029;-47
2023/05/13 00:03:32;;;;;;;8.10;6.72;;;14.60;99.90;;;;;;5031417;28;20120;-49
2023/05/13 00:05:58;;;;;;;8.20;5.75;;;14.70;99.90;;;;;;5030654;28;20124;-46
2023/05/13 00:08:24;;;;;;;7.43;6.50;;;14.70;99.90;;;;;;5030514;28;20042;-47
2023/05/13 00:10:50;;;;;;;8.30;7.03;;;14.70;99.90;;;;;;5031136;28;20083;-46
2023/05/13 00:13:15;;;;;;;9.65;8.00;;;14.70;99.90;;;;;;5046549;28;20025;-49
2023/05/13 00:15:41;;;;;;;8.77;7.35;;;14.70;99.90;;;;;;5030491;28;20434;-46
2023/05/13 00:18:07;;;;;;;10.07;6.95;;;14.70;99.90;;;;;;5030172;28;20022;-47
2023/05/13 00:20:32;;;;;;;8.57;6.53;;;14.70;99.90;;;;;;5031395;28;20541;-48
2023/05/13 00:22:58;;;;;;;17.42;6.55;;;14.70;99.90;;;;;;5031223;28;20029;-46
2023/05/13 00:25:24;;;;;;;11.93;6.88;;;14.70;99.90;;;;;;5031174;28;20072;-46
2023/05/13 00:27:51;;;;;;;8.03;6.90;;;14.70;99.90;;;;;;5030150;28;20496;-47
2023/05/13 00:30:16;;;;;;;7.85;6.78;;;14.80;99.90;;;;;;5030194;28;20069;-47
2023/05/13 00:32:42;;;;;;;7.97;6.22;;;14.70;99.90;;;;;;5031001;28;20053;-46
2023/05/13 00:35:09;;;;;;;10.63;7.43;;;14.70;99.90;;;;;;5030587;28;20083;-46
2023/05/13 00:37:34;;;;;;;10.02;7.10;;;14.60;99.90;;;;;;5030078;28;20055;-46
2023/05/13 00:40:00;;;;;;;10.20;6.90;;;14.60;99.90;;;;;;5030223;28;20064;-47
2023/05/13 00:42:26;;;;;;;9.07;6.78;;;14.60;99.90;;;;;;5030836;28;20033;-47
2023/05/13 00:44:51;;;;;;;12.38;7.00;;;14.50;99.90;;;;;;5030116;28;20108;-47
2023/05/13 00:47:17;;;;;;;9.85;6.47;;;14.40;99.90;;;;;;5029920;28;20037;-51
2023/05/13 00:49:43;;;;;;;9.80;6.47;;;14.40;99.90;;;;;;5018516;28;20026;-49
2023/05/13 00:52:09;;;;;;;9.50;7.65;;;14.40;99.90;;;;;;5018419;28;20022;-46
2023/05/13 00:54:35;;;;;;;9.90;6.70;;;14.40;99.90;;;;;;5030084;28;20265;-46
2023/05/13 00:57:00;;;;;;;10.43;7.07;;;14.40;99.90;;;;;;5030133;28;20025;-48
2023/05/13 00:59:28;;;;;;;12.38;7.25;;;14.40;99.90;;;;;;5029939;28;20045;-46
2023/05/13 01:02:13;;;;;;;7.78;6.32;;;14.40;99.90;;;;;;5029803;28;20029;-48
2023/05/13 01:05:18;;;;;;;7.32;6.55;;;14.40;99.90;;;;;;5021570;28;20040;-46
2023/05/13 01:08:03;;;;;;;10.88;7.78;;;14.30;99.90;;;;;;5029821;28;20033;-47
2023/05/13 01:10:48;;;;;;;8.13;7.32;;;14.30;99.90;;;;;;5030753;28;20049;-47
2023/05/13 01:13:20;;;;;;;11.93;7.80;;;14.30;99.90;;;;;;5029169;28;20488;-49
2023/05/13 01:16:05;;;;;;;15.07;6.68;;;14.20;99.90;;;;;;5018046;28;20519;-46
2023/05/13 01:18:36;;;;;;;8.23;7.43;;;14.20;99.90;;;;;;5030298;28;20034;-47
2023/05/13 01:21:04;;;;;;;10.82;7.55;;;14.20;99.90;;;;;;5029480;28;20053;-48
2023/05/13 01:23:29;;;;;;;11.07;7.95;;;14.10;99.90;;;;;;5030733;28;20056;-46
2023/05/13 01:25:55;;;;;;;18.13;7.85;;;14.00;99.90;;;;;;5030751;28;20061;-46
2023/05/13 01:28:21;;;;;;;11.13;8.00;;;14.00;99.90;;;;;;5029861;28;20021;-46
2023/05/13 01:30:48;;;;;;;15.48;9.02;;;13.90;99.90;;;;;;5028803;28;20408;-46
2023/05/13 01:33:15;;;;;;;8.57;7.75;;;13.90;99.90;;;;;;5028468;28;20018;-46
2023/05/13 01:35:41;;;;;;;11.50;7.85;;;13.90;99.90;;;;;;5030780;28;20037;-46
2023/05/13 01:38:08;;;;;;;11.75;8.40;;;13.90;99.90;;;;;;5029533;28;20067;-46
2023/05/13 01:40:34;;;;;;;13.07;9.05;;;13.90;99.90;;;;;;5029630;28;20065;-48
2023/05/13 01:42:59;;;;;;;8.73;7.78;;;13.90;99.90;;;;;;5029423;28;20060;-46
2023/05/13 01:45:28;;;;;;;10.40;8.55;;;13.80;99.90;;;;;;5028757;28;20040;-46
2023/05/13 01:47:54;;;;;;;12.88;9.15;;;13.80;99.90;;;;;;5048130;28;20577;-46
2023/05/13 01:50:20;;;;;;;11.50;7.97;;;13.80;99.90;;;;;;5034129;28;20028;-48
2023/05/13 01:52:46;;;;;;;10.23;8.52;;;13.80;99.90;;;;;;5033996;28;20022;-46
2023/05/13 01:55:12;;;;;;;11.50;9.25;;;13.80;99.90;;;;;;5033948;28;20086;-46
2023/05/13 01:57:38;;;;;;;11.93;9.15;;;13.70;99.90;;;;;;5032504;28;20025;-46
2023/05/13 02:00:05;;;;;;;12.27;8.60;;;13.70;99.90;;;;;;5019941;28;20037;-46
2023/05/13 02:02:30;;;;;;;10.35;8.75;;;13.60;99.90;;;;;;5028416;28;20503;-48
2023/05/13 02:04:56;;;;;;;9.65;8.43;;;13.60;99.90;;;;;;5034716;28;20044;-46
2023/05/13 02:07:22;;;;;;;10.88;8.80;;;13.60;99.90;;;;;;5034490;28;20017;-46
2023/05/13 02:09:47;;;;;;;13.43;9.35;;;13.60;99.90;;;;;;5034136;28;20500;-47
2023/05/13 02:12:13;;;;;;;11.60;8.52;;;13.50;99.90;;;;;;5033410;28;20036;-47
2023/05/13 02:14:39;;;;;;;13.35;8.27;;;13.50;99.90;;;;;;5049544;28;20029;-49
2023/05/13 02:17:04;;;;;;;11.35;8.65;;;13.50;99.90;;;;;;5033343;28;20033;-46
2023/05/13 02:19:30;;;;;;;11.38;9.68;;;13.40;99.90;;;;;;5033424;28;20044;-46
2023/05/13 02:21:56;;;;;;;11.23;9.85;;;13.40;99.90;;;;;;5033527;28;20487;-46
2023/05/13 02:24:22;;;;;;;11.02;9.40;;;13.40;99.90;;;;;;5033384;28;20030;-46
2023/05/13 02:26:47;;;;;;;12.00;8.95;;;13.40;99.90;;;;;;5033381;28;20499;-46
2023/05/13 02:29:13;;;;;;;13.77;10.32;;;13.30;99.90;;;;;;5032335;28;20069;-47
2023/05/13 02:31:41;;;;;;;12.07;9.27;;;13.40;99.90;;;;;;5046175;28;20518;-48
2023/05/13 02:34:07;;;;;;;12.23;10.05;;;13.30;99.90;;;;;;5033330;28;20026;-47
2023/05/13 02:36:33;;;;;;;9.63;8.48;;;13.30;99.90;;;;;;5032018;28;20049;-47
2023/05/13 02:38:59;;;;;;;14.25;9.18;;;13.30;99.90;;;;;;5032176;28;20029;-46
2023/05/13 02:41:25;;;;;;;11.07;9.00;;;13.30;99.90;;;;;;5032927;28;20025;-46
2023/05/13 02:43:50;;;;;;;10.60;9.40;;;13.20;99.90;;;;;;5047568;28;20034;-46
2023/05/13 02:46:16;;;;;;;14.32;9.52;;;13.20;99.90;;;;;;5032878;28;20087;-47
2023/05/13 02:48:41;;;;;;;13.05;9.50;;;13.20;99.90;;;;;;5032025;28;20038;-46
2023/05/13 02:51:08;;;;;;;10.70;8.25;;;13.20;99.90;;;;;;5030253;28;20029;-48
2023/05/13 02:53:34;;;;;;;11.10;8.25;;;13.20;99.90;;;;;;5032102;28;20037;-48
2023/05/13 02:55:59;;;;;;;9.40;7.55;;;13.20;99.90;;;;;;5032939;28;20022;-49
2023/05/13 02:58:25;;;;;;;11.50;8.70;;;13.10;99.90;;;;;;5033132;28;20057;-47
2023/05/13 03:00:51;;;;;;;16.33;9.43;;;13.10;99.90;;;;;;5031786;28;20033;-47
2023/05/13 03:03:16;;;;;;;12.18;8.52;;;13.10;99.90;;;;;;5032792;28;20495;-46
2023/05/13 03:05:42;;;;;;;9.38;8.43;;;13.10;99.90;;;;;;5033369;28;20068;-48
2023/05/13 03:08:08;;;;;;;12.85;9.05;;;13.10;99.90;;;;;;5029952;28;20030;-47
2023/05/13 03:10:33;;;;;;;11.27;9.73;;;13.10;99.90;;;;;;5032569;28;20026;-46
2023/05/13 03:12:59;;;;;;;11.48;10.25;;;13.10;99.90;;;;;;5033254;28;20403;-47
2023/05/13 03:15:25;;;;;;;9.07;8.15;;;13.00;99.90;;;;;;5031192;28;20092;-46
2023/05/13 03:17:51;;;;;;;12.00;9.52;;;13.10;99.90;;;;;;5032325;28;20033;-46
2023/05/13 03:20:17;;;;;;;12.02;9.93;;;13.00;99.90;;;;;;5021323;28;20032;-46
2023/05/13 03:22:43;;;;;;;13.17;10.13;;;13.00;99.90;;;;;;5033098;28;20531;-46
2023/05/13 03:25:09;;;;;;;13.68;10.63;;;12.90;99.90;;;;;;5028609;28;20304;-46
2023/05/13 03:27:35;;;;;;;11.75;9.35;;;12.90;99.90;;;;;;5031999;28;20053;-46
2023/05/13 03:30:01;;;;;;;12.20;9.70;;;12.90;99.90;;;;;;5032050;28;20029;-46
2023/05/13 03:32:29;;;;;;;11.00;9.85;;;12.90;99.90;;;;;;5029684;28;20556;-47
2023/05/13 03:34:56;;;;;;;14.02;10.52;;;12.90;99.90;;;;;;5032978;28;20025;-46
2023/05/13 03:37:22;;;;;;;11.93;9.98;;;12.90;99.90;;;;;;5032032;28;20195;-47
2023/05/13 03:39:49;;;;;;;15.48;10.35;;;12.80;99.90;;;;;;5032832;28;20018;-48
2023/05/13 03:42:14;;;;;;;11.30;9.77;;;12.80;99.90;;;;;;5032684;28;20029;-46
2023/05/13 03:44:40;;;;;;;13.43;9.65;;;12.80;99.90;;;;;;5031955;28;20044;-48
2023/05/13 03:47:06;;;;;;;12.23;10.13;;;12.80;99.90;;;;;;5031771;28;20042;-46
2023/05/13 03:49:31;;;;;;;11.23;10.00;;;12.90;99.90;;;;;;5032603;28;20039;-46
2023/05/13 03:51:57;;;;;;;12.48;10.63;;;12.90;99.90;;;;;;5030164;28;20036;-47
2023/05/13 03:54:22;;;;;;;14.18;10.40;;;13.00;99.90;;;;;;5032462;28;20032;-48
2023/05/13 03:56:48;;;;;;;13.70;10.93;;;13.10;99.90;;;;;;5032377;28;20029;-46
2023/05/13 03:59:14;;;;;;;10.88;9.73;;;13.10;99.90;;;;;;5030819;28;20025;-47
2023/05/13 04:01:39;;;;;;;18.08;12.05;;;13.20;99.90;;;;;;5030525;28;20104;-46
2023/05/13 04:04:05;;;;;;;12.25;10.93;;;13.30;99.90;;;;;;5031638;28;20095;-46
2023/05/13 04:06:31;;;;;;;11.25;9.75;;;13.40;99.90;;;;;;5031199;28;20518;-47
2023/05/13 04:08:57;;;;;;;13.85;10.00;;;13.40;99.90;;;;;;5030884;28;20087;-46
2023/05/13 04:11:22;;;;;;;12.93;11.25;;;13.50;99.90;;;;;;5031393;28;20017;-49
2023/05/13 04:13:48;;;;;;;11.65;9.95;;;13.60;99.90;;;;;;5032094;28;20405;-51
2023/05/13 04:16:13;;;;;;;19.27;9.85;;;13.60;99.90;;;;;;5032298;28;20032;-48
2023/05/13 04:18:39;;;;;;;13.23;10.30;;;13.60;99.90;;;;;;5031891;28;20122;-47
2023/05/13 04:21:08;;;;;;;10.93;9.82;;;13.60;99.90;;;;;;5032036;28;20024;-48
2023/05/13 04:23:34;;;;;;;12.40;10.23;;;13.60;99.90;;;;;;5032069;28;20067;-49
2023/05/13 04:26:00;;;;;;;12.63;10.27;;;13.70;99.90;;;;;;5032090;28;20060;-46
2023/05/13 04:28:26;;;;;;;13.68;10.70;;;13.70;99.90;;;;;;5031723;28;20026;-47
2023/05/13 04:30:51;;;;;;;12.95;10.55;;;13.70;99.90;;;;;;5031999;28;20519;-47
2023/05/13 04:33:17;;;;;;;14.35;10.88;;;13.80;99.90;;;;;;5031810;28;20025;-47
2023/05/13 04:35:43;;;;;;;15.98;9.65;;;13.80;99.90;;;;;;5031905;28;20151;-46
2023/05/13 04:38:09;;;;;;;16.42;10.90;;;13.80;99.90;;;;;;5031684;28;20416;-46
2023/05/13 04:40:34;;;;;;;12.55;10.70;;;13.90;99.90;;;;;;5031816;28;20067;-46
2023/05/13 04:43:00;;;;;;;13.02;10.25;;;13.90;99.90;;;;;;5031697;28;20040;-46
2023/05/13 04:45:26;;;;;;;13.52;11.38;;;14.00;99.90;;;;;;5031843;28;20033;-46
2023/05/13 04:47:51;;;;;;;13.95;11.57;;;13.90;99.90;;;;;;5031468;28;20037;-49
2023/05/13 04:50:17;;;;;;;17.55;12.55;;;13.90;99.90;;;;;;5031965;28;20030;-48
2023/05/13 04:52:43;;;;;;;19.67;12.25;;;13.90;99.90;;;;;;5031569;28;20030;-46
2023/05/13 04:55:10;;;;;;;16.45;13.32;;;14.00;99.90;;;;;;5031626;28;20026;-46
2023/05/13 04:57:35;;;;;;;17.95;12.80;;;14.00;99.90;;;;;;5022628;28;20025;-47
2023/05/13 05:00:03;;;;;;;18.20;14.13;;;14.10;99.90;;;;;;5011956;28;20550;-46
2023/05/13 05:02:28;;;;;;;19.83;14.43;;;14.10;99.90;;;;;;5011901;28;20076;-60
2023/05/13 05:04:55;;;;;;;21.58;14.77;;;14.20;99.90;;;;;;5011925;28;20030;-60
2023/05/13 05:07:21;;;;;;;17.58;14.90;;;14.20;99.90;;;;;;5026933;28;20052;-60
2023/05/13 05:09:47;;;;;;;16.25;14.45;;;14.20;99.90;;;;;;5011765;28;20551;-59
2023/05/13 05:12:12;;;;;;;22.38;16.67;;;14.20;99.90;;;;;;5035312;23;20087;-56
2023/05/13 05:14:38;;;;;;;22.40;15.63;;;14.20;99.90;;;;;;5049919;28;20478;-54
2023/05/13 05:17:04;;;;;;;19.65;16.52;;;14.20;99.90;;;;;;5042542;28;20024;-55
2023/05/13 05:19:30;;;;;;;19.67;16.92;;;14.30;99.90;;;;;;5030145;28;20030;-57
2023/05/13 05:21:55;;;;;;;21.35;15.65;;;14.30;99.90;;;;;;5034482;28;20033;-56
2023/05/13 05:24:21;;;;;;;19.30;16.45;;;14.30;99.90;;;;;;5035477;28;20467;-56
2023/05/13 05:26:47;;;;;;;20.90;17.65;;;14.30;99.90;;;;;;5035662;28;20472;-54
2023/05/13 05:29:13;;;;;;;18.63;15.70;;;14.30;99.90;;;;;;5034813;28;20041;-55
2023/05/13 05:31:38;;;;;;;20.02;16.05;;;14.40;99.90;;;;;;5034139;28;20029;-55
2023/05/13 05:34:04;;;;;;;18.92;16.92;;;14.40;99.90;;;;;;5035390;28;20029;-57
2023/05/13 05:36:30;;;;;;;16.73;14.52;;;14.40;99.90;;;;;;5035488;28;20041;-57
2023/05/13 05:38:56;;;;;;;19.90;15.68;;;14.50;99.90;;;;;;5033745;28;20428;-59
2023/05/13 05:41:21;;;;;;;22.35;16.45;;;14.50;99.90;;;;;;5035274;28;20033;-54
2023/05/13 05:43:47;;;;;;;20.77;15.00;;;14.50;99.90;;;;;;5035055;28;20026;-57
2023/05/13 05:46:13;;;;;;;19.75;15.82;;;14.60;99.90;;;;;;5034995;28;20436;-58
2023/05/13 05:48:39;;;;;;;20.15;16.52;;;14.60;99.90;;;;;;5034790;28;20048;-59
2023/05/13 05:51:05;;;;;;;19.98;16.30;;;14.70;99.90;;;;;;5033781;28;20237;-57
2023/05/13 05:53:32;;;;;;;18.52;15.65;;;14.80;99.90;;;;;;5034831;28;20022;-59
2023/05/13 05:55:58;;;;;;;21.27;15.63;;;14.90;99.90;;;;;;5035122;28;20353;-59
2023/05/13 05:58:25;;;;;;;19.55;15.48;;;14.90;99.90;;;;;;5034776;28;20079;-59
2023/05/13 06:00:53;;;;;;;20.48;15.27;;;15.00;99.90;;;;;;5034654;28;20021;-57
2023/05/13 06:03:19;;;;;;;21.75;15.25;;;15.10;99.90;;;;;;5033454;28;20079;-58
2023/05/13 06:05:48;;;;;;;18.95;14.30;;;15.10;99.90;;;;;;5034760;28;20223;-57
2023/05/13 06:08:14;;;;;;;18.48;15.20;;;15.20;99.90;;;;;;5034298;28;20033;-59
2023/05/13 06:10:40;;;;;;;18.15;14.98;;;15.20;99.90;;;;;;5034688;28;20066;-60
2023/05/13 06:13:05;;;;;;;18.58;14.27;;;15.20;99.90;;;;;;5034359;28;20037;-58
2023/05/13 06:15:31;;;;;;;22.27;14.02;;;15.30;99.90;;;;;;5034215;28;20021;-59
2023/05/13 06:17:57;;;;;;;20.40;14.88;;;15.30;99.90;;;;;;5034274;28;20028;-57
2023/05/13 06:20:23;;;;;;;26.95;15.18;;;15.40;99.90;;;;;;5034479;28;20029;-60
2023/05/13 06:22:48;;;;;;;22.40;14.93;;;15.50;99.90;;;;;;5034306;28;20392;-59
2023/05/13 06:25:14;;;;;;;19.52;13.45;;;15.60;99.90;;;;;;5034456;28;20107;-60
2023/05/13 06:27:40;;;;;;;25.25;15.10;;;15.60;99.90;;;;;;5034216;28;20107;-56
2023/05/13 06:30:06;;;;;;;15.48;13.43;;;15.70;99.90;;;;;;5034038;28;20555;-56
2023/05/13 06:32:32;;;;;;;17.55;13.80;;;15.70;99.90;;;;;;5033357;28;20049;-56
2023/05/13 06:34:58;;;;;;;16.33;13.57;;;15.80;99.90;;;;;;5034197;28;20483;-58
2023/05/13 06:37:23;;;;;;;18.20;13.38;;;15.80;99.90;;;;;;5033888;28;20369;-59
2023/05/13 06:39:49;;;;;;;15.82;12.63;;;15.90;99.90;;;;;;5034305;28;20048;-57
2023/05/13 06:42:15;;;;;;;15.43;12.70;;;15.90;99.90;;;;;;5034042;28;20029;-54
2023/05/13 06:44:40;;;;;;;17.98;13.65;;;15.90;99.90;;;;;;5033889;28;20022;-56
2023/05/13 06:47:09;;;;;;;18.80;12.88;;;15.90;99.90;;;;;;5032594;28;20029;-57
2023/05/13 06:49:34;;;;;;;15.57;12.32;;;16.00;99.90;;;;;;5033944;28;20526;-55
2023/05/13 06:52:00;;;;;;;18.35;13.32;;;16.00;99.90;;;;;;5033777;28;20049;-56
2023/05/13 06:54:26;;;;;;;26.92;13.52;;;16.10;99.90;;;;;;5034129;28;20554;-55
2023/05/13 06:56:52;;;;;;;19.60;14.52;;;16.00;99.90;;;;;;5033870;28;20026;-56
2023/05/13 06:59:20;;;;;;;16.27;12.73;;;16.10;99.90;;;;;;5032309;28;20032;-56
2023/05/13 07:01:46;;;;;;;16.65;13.57;;;16.10;99.90;;;;;;5033592;28;20036;-59
2023/05/13 07:04:11;;;;;;;17.73;14.00;;;16.20;99.90;;;;;;5032409;28;20030;-56
2023/05/13 07:06:37;;;;;;;18.17;13.90;;;16.30;99.90;;;;;;5033583;28;20029;-57
2023/05/13 07:09:03;;;;;;;15.90;12.95;;;16.40;99.90;;;;;;5033348;28;20057;-55
2023/05/13 07:11:28;;;;;;;21.70;14.88;;;16.50;99.90;;;;;;5033603;28;20390;-56
2023/05/13 07:13:54;;;;;;;16.70;14.27;;;16.60;99.90;;;;;;5033447;28;20510;-57
2023/05/13 07:16:20;;;;;;;14.73;13.07;;;16.70;99.90;;;;;;5033482;28;20045;-56
2023/05/13 07:18:45;;;;;;;18.67;15.90;;;16.80;99.90;;;;;;5033265;28;20032;-53
2023/05/13 07:21:13;;;;;;;17.17;13.73;;;16.90;99.90;;;;;;5033320;28;20029;-55
2023/05/13 07:23:38;;;;;;;18.92;14.88;;;16.90;99.90;;;;;;5033292;28;20395;-55
2023/05/13 07:26:04;;;;;;;17.70;15.55;;;16.90;99.90;;;;;;5033296;28;20026;-55
2023/05/13 07:28:30;;;;;;;15.95;14.30;;;17.00;99.90;;;;;;5033020;28;20080;-56
2023/05/13 07:30:56;;;;;;;20.10;15.00;;;17.10;99.90;;;;;;5033171;28;20029;-56
2023/05/13 07:33:21;;;;;;;15.45;13.93;;;17.40;99.90;;;;;;5033078;28;20435;-58
2023/05/13 07:35:47;;;;;;;15.80;13.00;;;17.50;99.90;;;;;;5032998;28;20051;-56
2023/05/13 07:38:13;;;;;;;12.80;11.32;;;17.60;99.80;;;;;;5032924;28;20096;-59
2023/05/13 07:40:40;;;;;;;12.27;11.00;;;17.70;99.10;;;;;;5033027;28;20453;-56
2023/05/13 07:43:07;;;;;;;14.70;11.38;;;17.80;99.00;;;;;;5032818;28;20035;-57
2023/05/13 07:45:33;;;;;;;14.40;10.25;;;17.80;98.80;;;;;;5032959;28;20109;-57
2023/05/13 07:47:58;;;;;;;12.00;8.82;;;17.90;98.50;;;;;;5031425;28;20021;-56
2023/05/13 07:50:24;;;;;;;10.35;9.25;;;18.00;97.40;;;;;;5030770;28;20026;-53
2023/05/13 07:52:50;;;;;;;14.55;9.70;;;18.00;97.20;;;;;;5032771;28;20550;-54
2023/05/13 07:55:16;;;;;;;10.95;9.10;;;18.10;96.70;;;;;;5031416;28;20112;-56
2023/05/13 07:57:42;;;;;;;9.23;8.17;;;18.30;96.60;;;;;;5032415;28;20028;-54
2023/05/13 08:00:08;;;;;;;12.13;7.40;;;18.50;96.30;;;;;;5032564;28;20037;-53
2023/05/13 08:02:37;;;;;;;6.18;5.57;;;18.80;95.30;;;;;;5032392;28;20039;-57
2023/05/13 08:05:03;;;;;;;9.63;6.72;;;18.90;93.40;;;;;;5032402;28;20044;-58
2023/05/13 08:07:29;;;;;;;8.83;6.97;;;19.00;92.80;;;;;;5032251;28;20025;-56
2023/05/13 08:09:55;;;;;;;9.45;6.40;;;19.00;92.80;;;;;;5032341;28;20018;-53
2023/05/13 08:12:20;;;;;;;14.35;7.38;;;19.00;92.10;;;;;;5032193;28;20615;-56
2023/05/13 08:14:46;;;;;;;8.02;6.70;;;18.80;91.90;;;;;;5032318;28;20021;-55
2023/05/13 08:17:12;;;;;;;10.50;7.85;;;18.80;92.90;;;;;;5031962;28;20144;-57
2023/05/13 08:19:37;;;;;;;10.30;6.70;;;18.80;93.70;;;;;;5032061;28;20124;-58
2023/05/13 08:22:03;;;;;;;9.20;7.50;;;18.80;92.50;;;;;;5030821;28;20025;-57
2023/05/13 08:24:29;;;;;;;7.15;6.40;;;18.70;92.20;;;;;;5032296;28;20507;-55
2023/05/13 08:26:55;;;;;;;8.30;6.82;;;18.70;92.50;;;;;;5032082;28;20454;-56
2023/05/13 08:29:20;;;;;;;12.80;7.20;;;18.80;92.80;;;;;;5031774;28;20025;-56
2023/05/13 08:31:46;;;;;;;9.70;6.47;;;19.00;92.20;;;;;;5031867;28;20026;-58
2023/05/13 08:34:12;;;;;;;9.23;7.13;;;19.00;91.30;;;;;;5031909;28;20395;-56
2023/05/13 08:36:37;;;;;;;10.70;6.88;;;19.10;91.00;;;;;;5031951;28;20021;-57
2023/05/13 08:39:03;;;;;;;8.98;5.30;;;19.20;90.20;;;;;;5031770;28;20029;-57
2023/05/13 08:41:30;;;;;;;10.27;5.85;;;19.10;86.20;;;;;;5031754;28;20108;-54
2023/05/13 08:43:56;;;;;;;;;;;19.10;89.50;;;;;;5032203;28;20071;-59
2023/05/13 08:46:25;;;;;;;6.72;4.97;;;19.00;84.70;;;;;;5031812;28;19987;-54
2023/05/13 08:48:53;;;;;;;8.05;5.22;;;19.00;86.20;;;;;;5031450;28;20029;-55
2023/05/13 08:51:19;;;;;;;8.77;6.40;;;18.90;87.80;;;;;;5031763;28;20083;-56
2023/05/13 08:53:46;;;;;;;7.32;5.47;;;18.90;90.40;;;;;;5031596;28;20480;-54
2023/05/13 08:56:12;;;;;;;7.28;5.63;;;19.00;89.80;;;;;;5031250;28;20017;-56
2023/05/13 08:58:38;;;;;;;9.80;5.68;;;19.10;87.50;;;;;;5031539;28;20593;-58
2023/05/13 09:01:06;;;;;;;7.30;5.35;;;19.10;87.20;;;;;;5030331;28;20032;-54
2023/05/13 09:03:32;;;;;;;10.30;5.38;;;19.10;86.10;;;;;;5031464;28;20160;-57
2023/05/13 09:06:00;;;;;;;7.63;3.97;;;19.10;85.70;;;;;;5030316;28;20028;-57
2023/05/13 09:08:26;;;;;;;11.10;5.78;;;19.20;85.60;;;;;;5029997;28;20507;-57
2023/05/13 09:10:52;;;;;;;8.77;5.78;;;19.30;83.80;;;;;;5030241;28;20030;-55
2023/05/13 09:13:18;;;;;;;12.50;6.47;;;19.20;84.20;;;;;;5031421;28;20497;-59
2023/05/13 09:15:44;;;;;;;6.82;5.50;;;19.10;87.10;;;;;;5031458;28;20079;-58
2023/05/13 09:18:09;;;;;;;6.03;4.43;;;19.10;86.00;;;;;;5031290;28;20399;-58
2023/05/13 09:20:35;;;;;;;8.18;4.68;;;19.00;87.40;;;;;;5031820;28;20033;-58
2023/05/13 09:23:04;;;;;;;7.03;5.53;;;18.90;87.80;;;;;;5031371;28;20419;-57
2023/05/13 09:25:30;;;;;;;5.63;3.90;;;19.00;87.30;;;;;;5030131;28;20075;-53
2023/05/13 09:27:58;;;;;;;6.78;5.20;;;19.10;86.00;;;;;;5031186;28;20484;-58
2023/05/13 09:30:28;;;;;;;7.32;4.40;;;19.00;85.10;;;;;;5031311;28;20021;-57
2023/05/13 09:33:12;;;;;;;8.65;5.47;;;19.00;87.20;;;;;;5030322;28;20124;-56
2023/05/13 09:35:43;;;;;;;6.55;4.47;;;19.00;84.20;;;;;;5031353;28;20060;-54
2023/05/13 09:38:14;;;;;;;6.03;4.45;;;19.10;84.80;;;;;;5031126;28;20456;-56
2023/05/13 09:40:41;;;;;;;7.05;4.95;;;19.10;85.40;;;;;;5031768;28;20017;-56
2023/05/13 09:43:07;;;;;;;4.75;3.42;;;19.20;83.80;;;;;;5031245;28;20487;-54
2023/05/13 09:45:33;;;;;;;4.50;4.03;;;19.10;82.30;;;;;;5031243;28;20428;-58
2023/05/13 09:47:59;;;;;;;4.82;3.53;;;19.10;82.60;;;;;;5030888;28;20252;-56
2023/05/13 09:50:26;;;;;;;8.93;4.15;;;19.10;83.50;;;;;;5031105;28;20475;-58
2023/05/13 09:52:52;;;;;;;8.80;4.82;;;19.10;85.00;;;;;;5031122;28;20021;-56
2023/05/13 09:55:17;;;;;;;7.80;4.63;;;19.20;85.30;;;;;;5031077;28;20018;-55
2023/05/13 09:57:45;;;;;;;5.75;3.47;;;19.20;84.30;;;;;;5031119;28;20109;-56
2023/05/13 10:00:10;;;;;;;7.15;3.25;;;19.30;82.90;;;;;;5031085;28;20022;-55
2023/05/13 10:02:37;;;;;;;7.35;3.80;;;19.40;83.50;;;;;;5030913;28;20037;-57
2023/05/13 10:05:07;;;;;;;6.15;4.03;;;19.50;83.30;;;;;;5031051;28;20029;-55
2023/05/13 10:07:34;;;;;;;7.38;4.25;;;19.60;80.80;;;;;;5031195;28;20041;-54
2023/05/13 10:10:05;;;;;;;5.32;2.90;;;19.60;80.50;;;;;;5034556;28;20025;-48
2023/05/13 10:12:35;;;;;;;6.55;3.72;;;19.70;80.40;;;;;;5034734;28;20084;-51
2023/05/13 10:15:01;;;;;;;6.07;3.55;;;19.80;81.60;;;;;;5034553;28;20025;-48
2023/05/13 10:17:29;;;;;;;4.50;2.17;;;19.80;78.60;;;;;;5034573;28;20029;-51
2023/05/13 10:19:55;;;;;;;5.82;3.50;;;19.80;79.00;;;;;;5034222;28;20026;-57
2023/05/13 10:22:28;;;;;;;5.43;3.90;;;19.90;79.20;;;;;;5032828;28;20091;-57
2023/05/13 10:24:58;;;;;;;9.20;3.33;;;20.10;80.50;;;;;;5033651;28;20429;-57
2023/05/13 10:27:29;;;;;;;4.78;3.03;;;20.30;74.80;;;;;;5033762;28;20033;-57
2023/05/13 10:30:00;;;;;;;4.63;2.60;;;20.20;76.50;;;;;;5033977;28;20032;-47
2023/05/13 10:32:30;;;;;;;3.80;2.75;;;20.10;76.70;;;;;;5040483;28;20029;-54
2023/05/13 10:35:17;;;;;;;5.18;3.00;;;20.10;75.70;;;;;;5038088;28;20075;-53
2023/05/13 10:37:48;;;;;;;73.28;57.20;;;20.30;77.20;;;;;;5034031;28;20086;-55
2023/05/13 10:40:43;;;;;;;7.20;4.43;;;20.30;75.90;;;;;;5034014;28;20037;-51
2023/05/13 10:43:24;;;;;;;4.10;3.17;;;20.40;76.90;;;;;;5033902;28;20480;-48
2023/05/13 10:45:56;;;;;;;4.82;2.28;;;20.30;73.30;;;;;;5033809;28;20113;-50
2023/05/13 10:48:22;;;;;;;7.32;2.42;;;20.30;72.00;;;;;;5033713;28;20018;-52
2023/05/13 10:50:55;;;;;;;8.20;3.93;;;20.40;76.10;;;;;;5037431;28;20437;-51
2023/05/13 10:53:30;;;;;;;4.03;3.25;;;20.60;76.80;;;;;;5041195;28;20029;-57
2023/05/13 10:55:58;;;;;;;7.00;3.58;;;20.70;75.30;;;;;;5046335;28;20040;-57
2023/05/13 10:58:33;;;;;;;4.38;2.65;;;20.90;75.10;;;;;;5040942;28;20033;-57
2023/05/13 11:01:17;;;;;;;5.97;2.67;;;21.10;74.50;;;;;;5045024;28;20038;-59
2023/05/13 11:03:54;;;;;;;3.47;2.00;;;21.40;71.30;;;;;;5040277;28;20025;-56
2023/05/13 11:06:22;;;;;;;3.40;2.08;;;21.50;68.20;;;;;;5033491;28;20033;-57
2023/05/13 11:08:50;;;;;;;3.80;2.47;;;21.60;67.40;;;;;;5033440;28;20033;-56
2023/05/13 11:11:17;;;;;;;2.38;1.80;;;21.60;69.00;;;;;;5033577;28;20388;-55
2023/05/13 11:13:43;;;;;;;8.23;2.47;;;21.80;67.80;;;;;;5036417;23;20042;-53
2023/05/13 11:16:12;;;;;;;2.45;0.90;;;21.60;65.10;;;;;;5031874;28;20549;-58
2023/05/13 11:18:37;;;;;;;2.53;1.40;;;21.40;63.60;;;;;;5031148;28;22106;-57
2023/05/13 11:21:07;;;;;;;6.53;2.40;;;21.30;64.70;;;;;;5032002;28;20029;-56
2023/05/13 11:23:48;;;;;;;6.00;2.20;;;21.40;66.90;;;;;;5022056;28;20034;-57
2023/05/13 11:26:15;;;;;;;5.40;2.42;;;21.50;66.70;;;;;;5013500;28;20400;-57
2023/05/13 11:28:54;;;;;;;4.28;1.98;;;21.70;66.60;;;;;;5012162;28;20026;-56
2023/05/13 11:31:21;;;;;;;3.85;1.30;;;21.80;65.70;;;;;;5003676;28;20030;-56
2023/05/13 11:34:16;;;;;;;1.90;1.45;;;21.80;62.90;;;;;;5012427;28;20022;-61
2023/05/13 11:36:56;;;;;;;2.72;1.98;;;21.80;59.40;;;;;;5010101;28;20036;-58
2023/05/13 11:39:25;;;;;;;3.05;1.63;;;21.90;62.00;;;;;;5010573;28;20369;-57
2023/05/13 11:41:53;;;;;;;4.50;1.88;;;22.00;62.10;;;;;;5010468;28;20414;-57
2023/05/13 11:44:21;;;;;;;2.72;1.85;;;22.10;61.60;;;;;;5012943;28;20061;-58
2023/05/13 11:46:54;;;;;;;7.47;2.67;;;22.30;62.40;;;;;;5009315;28;20042;-58
2023/05/13 11:49:33;;;;;;;3.53;1.83;;;22.50;63.80;;;;;;5010915;28;20029;-57
2023/05/13 11:52:00;;;;;;;3.05;1.95;;;22.60;61.80;;;;;;5011691;28;20034;-56
2023/05/13 11:54:26;;;;;;;4.72;1.80;;;22.60;61.20;;;;;;5013000;28;20026;-58
2023/05/13 11:56:52;;;;;;;3.28;1.83;;;22.80;61.50;;;;;;5011456;28;20069;-58
2023/05/13 11:59:18;;;;;;;2.30;1.48;;;22.90;61.30;;;;;;5011815;28;20508;-58
2023/05/13 12:01:44;;;;;;;6.10;2.08;;;23.00;61.70;;;;;;5011801;28;20064;-58
2023/05/13 12:04:10;;;;;;;3.13;1.42;;;23.00;59.80;;;;;;5011502;28;20058;-58
2023/05/13 12:06:45;;;;;;;5.10;1.75;;;23.00;58.60;;;;;;5010948;28;20550;-55
2023/05/13 12:09:11;;;;;;;4.55;2.22;;;22.80;58.80;;;;;;5011804;28;20018;-58
2023/05/13 12:11:38;;;;;;;3.10;1.40;;;22.70;59.60;;;;;;5011953;28;20041;-57
2023/05/13 12:14:03;;;;;;;4.40;1.50;;;22.60;59.30;;;;;;5012488;28;20030;-57
2023/05/13 12:16:29;;;;;;;2.57;1.87;;;22.80;61.80;;;;;;5011812;28;20426;-58
2023/05/13 12:19:02;;;;;;;3.40;2.00;;;23.00;61.40;;;;;;5010455;28;20041;-58
2023/05/13 12:21:31;;;;;;;2.13;1.60;;;23.20;61.80;;;;;;5012552;28;20084;-57
2023/05/13 12:23:57;;;;;;;3.20;1.73;;;23.40;59.60;;;;;;5012435;28;20026;-58
2023/05/13 12:26:24;;;;;;;2.03;1.70;;;23.50;59.60;;;;;;5011561;28;20391;-58
2023/05/13 12:28:57;;;;;;;7.72;1.90;;;23.60;58.20;;;;;;5010688;28;20026;-55
2023/05/13 12:31:23;;;;;;;2.17;1.52;;;23.50;55.70;;;;;;5009878;28;20029;-54
2023/05/13 12:33:49;;;;;;;2.25;1.05;;;23.40;56.40;;;;;;5010990;28;20368;-55
2023/05/13 12:36:20;;;;;;;3.43;1.30;;;23.20;55.80;;;;;;5012377;28;20026;-58
2023/05/13 12:39:06;;;;;;;3.45;1.50;;;23.00;56.00;;;;;;5011070;28;20049;-58